Time;durP1;ratioP1;P1;durP2;ratioP2;P2;SDS_P1;SDS_P2;PMS_P1;PMS_P2;Temp;Humidity;BMP_temperature;BMP_pressure;BME280_temperature;BME280_humidity;BME280_pressure;Samples;Min_cycle;Max_cycle;Signal;HPM_P1;HPM_P2
2022/06/06 00:26:53;;;;;;;40.28;26.90;;;;;;;16.15;93.34;100727.34;5969023;23;20052;-79
2022/06/06 02:26:12;;;;;;;26.58;17.25;;;;;;;15.82;90.75;100701.47;6135355;23;20521;-78
2022/06/06 02:29:43;;;;;;;;;;;;;;;;;;;;;
2022/06/06 02:33:22;;;;;;;24.48;17.50;;;;;;;15.82;90.55;100698.84;6077602;23;20159;-83
2022/06/06 02:43:26;;;;;;;20.10;14.55;;;;;;;16.00;88.82;100698.41;6046991;23;20024;-79
2022/06/06 03:21:23;;;;;;;15.88;11.15;;;;;;;15.71;87.99;100696.69;6226912;23;20023;-81
2022/06/06 03:24:09;;;;;;;13.25;10.73;;;;;;;15.81;87.69;100709.59;6224448;23;20016;-82
2022/06/06 03:26:50;;;;;;;14.98;10.45;;;;;;;15.70;87.50;100695.06;6222612;23;20025;-81
2022/06/06 03:29:35;;;;;;;14.10;11.23;;;;;;;15.79;87.54;100708.97;6221764;23;20028;-80
2022/06/06 03:32:12;;;;;;;12.75;10.60;;;;;;;15.71;87.92;100709.06;6217420;23;20021;-81
2022/06/06 03:34:46;;;;;;;16.17;12.00;;;;;;;15.70;88.57;100716.16;6218762;23;20453;-79
2022/06/06 03:37:22;;;;;;;15.73;11.07;;;;;;;15.76;87.97;100719.88;6218149;23;20342;-79
2022/06/06 03:39:58;;;;;;;18.00;12.27;;;;;;;15.80;87.96;100729.06;6217782;23;20062;-79
2022/06/06 03:42:32;;;;;;;19.15;12.60;;;;;;;15.80;87.99;100723.78;6217201;23;20096;-81
2022/06/06 03:45:12;;;;;;;20.35;11.88;;;;;;;15.77;88.77;100721.53;6217339;23;20060;-80
2022/06/06 03:47:49;;;;;;;16.70;12.93;;;;;;;15.76;88.51;100725.97;6218764;23;20032;-79
2022/06/06 03:50:25;;;;;;;16.65;11.98;;;;;;;15.73;88.69;100722.91;6219192;23;20108;-79
2022/06/06 03:52:57;;;;;;;16.60;11.35;;;;;;;15.76;88.84;100730.44;6218039;23;20059;-79
2022/06/06 03:55:37;;;;;;;16.55;11.43;;;;;;;15.79;88.55;100736.16;6218327;23;20032;-82
2022/06/06 03:58:05;;;;;;;14.75;11.25;;;;;;;15.77;89.08;100747.91;6219549;23;20116;-80
2022/06/06 04:00:33;;;;;;;15.75;11.63;;;;;;;15.77;88.67;100740.81;6218092;23;20031;-81
2022/06/06 04:03:04;;;;;;;16.73;12.10;;;;;;;15.78;89.10;100741.63;6220555;23;20025;-80
2022/06/06 04:05:37;;;;;;;15.77;10.75;;;;;;;15.83;88.40;100747.16;6221794;23;20019;-81
2022/06/06 04:08:04;;;;;;;16.70;11.45;;;;;;;15.84;89.00;100733.78;6221471;23;20043;-79
2022/06/06 04:10:42;;;;;;;17.92;10.45;;;;;;;15.86;87.39;100741.50;6221260;23;20505;-82
2022/06/06 04:13:20;;;;;;;14.18;10.15;;;;;;;15.92;87.48;100754.78;6221231;23;20095;-80
2022/06/06 04:15:53;;;;;;;13.70;9.95;;;;;;;15.94;85.71;100749.31;6221321;23;20048;-83
2022/06/06 04:18:32;;;;;;;13.88;10.48;;;;;;;16.06;84.92;100758.38;6218790;23;20021;-79
2022/06/06 04:21:11;;;;;;;14.68;10.35;;;;;;;16.11;85.16;100761.22;6218395;23;20385;-80
2022/06/06 04:23:59;;;;;;;13.70;9.60;;;;;;;16.15;85.45;100759.84;6220153;23;20025;-80
2022/06/06 04:26:38;;;;;;;15.27;10.70;;;;;;;16.01;85.90;100766.03;6217718;23;20093;-78
2022/06/06 04:29:14;;;;;;;13.43;9.98;;;;;;;16.04;86.61;100762.19;6218000;23;20020;-79
2022/06/06 04:31:48;;;;;;;17.58;10.85;;;;;;;15.92;85.59;100761.88;6217356;23;20083;-79
2022/06/06 04:34:21;;;;;;;14.55;10.02;;;;;;;15.97;85.64;100756.03;6217688;23;20052;-80
2022/06/06 04:36:55;;;;;;;15.13;10.80;;;;;;;15.92;85.88;100756.59;6218701;23;20063;-79
2022/06/06 04:39:35;;;;;;;15.18;11.23;;;;;;;15.89;85.18;100746.41;6217607;23;20028;-80
2022/06/06 04:42:09;;;;;;;13.93;10.30;;;;;;;15.82;84.35;100751.63;6219017;23;20072;-81
2022/06/06 04:44:43;;;;;;;16.65;10.70;;;;;;;15.94;83.33;100746.66;6220214;23;20020;-80
2022/06/06 04:47:16;;;;;;;15.82;10.27;;;;;;;16.02;83.16;100741.28;6220011;23;20032;-81
2022/06/06 04:49:44;;;;;;;14.98;9.40;;;;;;;16.00;83.68;100750.38;6220054;23;20361;-81
2022/06/06 04:52:14;;;;;;;17.95;10.95;;;;;;;16.04;83.38;100747.19;6219311;23;20031;-81
2022/06/06 04:54:43;;;;;;;12.57;9.88;;;;;;;16.13;82.74;100748.66;6218710;23;20048;-81
2022/06/06 04:57:12;;;;;;;13.95;10.60;;;;;;;16.00;82.58;100755.66;6219859;23;20024;-81
2022/06/06 04:59:41;;;;;;;12.15;10.02;;;;;;;16.12;82.87;100752.31;6220652;23;20028;-81
2022/06/06 05:02:09;;;;;;;13.40;9.73;;;;;;;16.11;82.26;100763.06;6221200;23;20024;-81
2022/06/06 05:04:35;;;;;;;14.38;9.43;;;;;;;16.06;82.00;100760.19;6223681;23;20020;-81
2022/06/06 05:07:28;;;;;;;13.90;9.57;;;;;;;15.92;81.96;100762.69;6224296;23;20357;-80
2022/06/06 05:10:05;;;;;;;;;;;;;;;15.97;81.87;100763.94;6224577;23;20377;-80
2022/06/06 05:12:52;;;;;;;13.77;8.65;;;;;;;15.88;81.46;100765.88;6225163;23;20264;-80
2022/06/06 05:15:36;;;;;;;10.45;8.18;;;;;;;15.97;80.61;100780.59;6224166;23;20028;-83
2022/06/06 05:18:21;;;;;;;10.65;7.35;;;;;;;16.02;79.87;100778.22;6223886;23;20024;-82
2022/06/06 05:20:58;;;;;;;11.32;7.40;;;;;;;15.97;79.67;100783.25;6228772;23;20025;-79
2022/06/06 05:23:48;;;;;;;10.15;7.15;;;;;;;16.04;79.00;100792.06;6227346;23;20025;-80
2022/06/06 05:26:31;;;;;;;10.25;7.22;;;;;;;16.36;78.44;100779.34;6227168;23;20029;-81
2022/06/06 05:29:13;;;;;;;9.95;6.40;;;;;;;17.24;75.83;100776.91;6219336;23;20025;-79
2022/06/06 05:31:57;;;;;;;8.27;6.53;;;;;;;18.92;69.36;100780.47;6218853;23;20028;-81
2022/06/06 05:34:30;;;;;;;9.23;6.70;;;;;;;20.07;64.63;100783.09;6217961;23;20402;-81
2022/06/06 05:37:14;;;;;;;9.65;6.60;;;;;;;20.04;63.79;100788.84;6218770;23;20024;-80
2022/06/06 05:40:02;;;;;;;9.85;7.15;;;;;;;19.17;67.09;100781.47;6219425;23;20048;-81
2022/06/06 05:42:43;;;;;;;13.05;6.70;;;;;;;19.47;66.84;100787.06;6219404;23;20079;-81
2022/06/06 05:45:22;;;;;;;9.70;6.63;;;;;;;20.08;64.33;100790.03;6219269;23;20092;-80
2022/06/06 05:47:58;;;;;;;10.52;6.28;;;;;;;21.46;61.01;100789.81;6218504;23;20060;-83
2022/06/06 05:50:43;;;;;;;7.47;5.90;;;;;;;22.43;56.19;100798.50;6219377;23;20021;-81
2022/06/06 05:53:23;;;;;;;9.73;5.60;;;;;;;22.56;54.74;100814.31;6218565;23;20031;-81
2022/06/06 05:56:03;;;;;;;9.18;6.00;;;;;;;23.69;52.54;100803.16;6219428;23;20075;-81
2022/06/06 05:58:43;;;;;;;8.63;5.65;;;;;;;24.10;50.88;100804.72;6218833;23;20100;-80
2022/06/06 06:01:26;;;;;;;6.35;5.50;;;;;;;23.76;52.02;100787.81;6219351;23;20024;-81
2022/06/06 06:04:08;;;;;;;6.80;5.60;;;;;;;22.61;54.87;100800.28;6215706;23;20017;-77
2022/06/06 06:06:40;;;;;;;;;;;;;;;22.23;55.21;100787.34;6216101;23;20071;-79
2022/06/06 06:09:30;;;;;;;5.78;5.05;;;;;;;23.23;51.80;100787.25;6216172;23;19926;-77
2022/06/06 06:12:09;;;;;;;6.30;5.20;;;;;;;22.78;52.07;100796.69;6217787;23;20025;-79
2022/06/06 06:14:47;;;;;;;8.75;5.05;;;;;;;21.65;55.46;100799.41;6219404;23;20056;-82
2022/06/06 06:17:17;;;;;;;5.57;4.90;;;;;;;23.01;51.23;100800.41;6222092;23;20039;-81
2022/06/06 06:19:57;;;;;;;6.50;4.75;;;;;;;23.54;49.94;100804.75;6221962;23;20409;-81
2022/06/06 06:22:28;;;;;;;8.38;5.13;;;;;;;22.25;53.01;100801.25;6217609;23;20028;-80
2022/06/06 06:25:00;;;;;;;6.63;5.10;;;;;;;22.63;52.08;100799.00;6221063;23;20021;-82
2022/06/06 06:27:31;;;;;;;5.75;4.70;;;;;;;21.85;52.48;100813.28;6223079;23;20020;-82
2022/06/06 06:29:58;;;;;;;6.38;4.50;;;;;;;20.69;57.12;100808.00;6221397;23;20102;-82
2022/06/06 06:32:38;;;;;;;7.85;5.20;;;;;;;19.98;56.44;100808.28;6221451;23;20331;-83
2022/06/06 06:35:16;;;;;;;5.60;4.57;;;;;;;19.04;60.60;100805.34;6221344;23;20016;-82
2022/06/06 06:37:59;;;;;;;5.47;4.22;;;;;;;18.41;61.52;100807.63;6222633;23;20039;-83
2022/06/06 06:40:40;;;;;;;8.70;4.53;;;;;;;18.18;62.20;100814.09;6223453;23;20032;-82
2022/06/06 06:43:16;;;;;;;8.73;4.68;;;;;;;18.58;61.99;100814.97;6221869;23;20028;-84
2022/06/06 06:45:46;;;;;;;8.15;4.50;;;;;;;18.47;60.43;100822.69;6224017;23;20020;-82
2022/06/06 06:48:18;;;;;;;7.32;4.28;;;;;;;19.99;54.79;100811.75;6223291;23;20069;-82
2022/06/06 06:50:56;;;;;;;8.07;3.90;;;;;;;20.39;53.32;100818.47;6220240;23;20021;-80
2022/06/06 06:53:36;;;;;;;5.03;3.50;;;;;;;22.33;49.10;100825.72;6219009;23;20024;-79
2022/06/06 06:56:12;;;;;;;6.82;3.63;;;;;;;23.49;46.41;100814.25;6218640;23;20480;-80
2022/06/06 06:58:52;;;;;;;4.03;3.47;;;;;;;23.46;44.67;100819.25;6217330;23;20032;-80
2022/06/06 07:01:24;;;;;;;5.88;3.92;;;;;;;22.99;46.50;100823.84;6217231;23;20028;-79
2022/06/06 07:10:06;;;;;;;3.85;3.20;;;;;;;23.67;42.97;100825.81;6222003;23;20063;-81
2022/06/06 07:12:48;;;;;;;4.50;3.10;;;;;;;23.70;42.53;100822.69;6220578;23;20020;-81
2022/06/06 07:15:27;;;;;;;4.20;3.40;;;;;;;24.19;41.82;100812.34;6217995;23;20520;-81
2022/06/06 07:17:58;;;;;;;3.88;3.20;;;;;;;23.89;42.47;100824.13;6223706;23;20044;-79
2022/06/06 07:20:27;;;;;;;4.57;3.05;;;;;;;24.20;41.83;100817.44;6220722;23;20043;-82
2022/06/06 07:23:02;;;;;;;4.97;3.10;;;;;;;23.67;43.52;100829.31;6223231;23;20044;-81
2022/06/06 07:25:33;;;;;;;4.68;3.38;;;;;;;23.92;42.45;100830.84;6223827;23;20449;-80
2022/06/06 07:27:59;;;;;;;4.75;2.90;;;;;;;24.11;42.62;100832.25;6222959;23;20367;-81
2022/06/06 07:30:30;;;;;;;3.13;2.63;;;;;;;22.78;42.79;100828.72;6223007;23;20021;-81
2022/06/06 07:33:10;;;;;;;4.07;2.80;;;;;;;23.65;42.08;100825.25;6222900;23;20024;-80
2022/06/06 07:35:56;;;;;;;3.10;2.63;;;;;;;22.58;42.64;100838.06;6222698;23;20044;-80
2022/06/06 07:38:39;;;;;;;3.85;2.90;;;;;;;23.38;42.12;100828.44;6220168;23;20101;-81
2022/06/06 07:41:21;;;;;;;4.65;3.03;;;;;;;24.31;40.98;100821.16;6223505;23;20020;-81
2022/06/06 07:44:04;;;;;;;4.03;2.58;;;;;;;23.25;43.40;100822.53;6221354;23;20032;-81
2022/06/06 07:46:47;;;;;;;3.78;2.92;;;;;;;22.57;45.84;100837.25;6221463;23;20031;-80
2022/06/06 07:49:23;;;;;;;3.17;2.88;;;;;;;22.07;46.85;100831.47;6220259;23;20025;-80
2022/06/06 07:51:58;;;;;;;4.47;3.28;;;;;;;23.72;43.41;100824.06;6220801;23;20028;-81
2022/06/06 07:54:36;;;;;;;3.83;2.90;;;;;;;24.90;42.07;100822.34;6220128;23;20031;-80
2022/06/06 07:57:11;;;;;;;4.18;2.70;;;;;;;25.74;39.62;100811.38;6219978;23;20082;-80
2022/06/06 07:59:48;;;;;;;7.57;3.00;;;;;;;26.82;37.86;100822.00;6222338;23;20044;-81
2022/06/06 08:02:50;;;;;;;3.85;2.90;;;;;;;26.08;38.67;100814.66;6221965;23;20028;-81
2022/06/06 08:05:52;;;;;;;3.65;2.95;;;;;;;25.76;38.19;100807.41;6227103;23;20020;-82
2022/06/06 08:08:32;;;;;;;4.13;3.22;;;;;;;25.93;39.44;100811.84;6233943;23;20027;-80
2022/06/06 08:11:09;;;;;;;5.03;2.80;;;;;;;25.29;39.88;100790.22;6223020;23;20029;-82
2022/06/06 08:13:52;;;;;;;5.78;2.88;;;;;;;25.08;41.35;100810.56;6219782;23;20020;-82
2022/06/06 08:16:27;;;;;;;5.90;3.15;;;;;;;25.74;40.75;100795.31;6220367;23;20057;-81
2022/06/06 08:19:16;;;;;;;4.10;2.80;;;;;;;25.72;38.85;100800.09;6220525;23;20056;-81
2022/06/06 08:21:46;;;;;;;4.78;2.80;;;;;;;25.79;39.64;100800.72;6220408;23;20357;-81
2022/06/06 08:24:17;;;;;;;5.47;3.15;;;;;;;25.95;39.25;100791.78;6220420;23;20017;-80
2022/06/06 08:26:48;;;;;;;3.63;2.83;;;;;;;25.04;39.82;100790.72;6220987;23;20491;-81
2022/06/06 08:29:16;;;;;;;7.85;4.90;;;;;;;25.12;38.70;100795.63;6218439;23;20024;-80
2022/06/06 08:31:43;;;;;;;7.93;5.25;;;;;;;24.63;41.20;100802.66;6223944;23;20028;-81
2022/06/06 08:34:12;;;;;;;5.18;3.03;;;;;;;24.43;40.00;100809.31;6224568;23;20048;-82
2022/06/06 08:36:57;;;;;;;3.38;2.58;;;;;;;22.72;42.74;100808.25;6221337;23;20024;-82
2022/06/06 08:39:30;;;;;;;6.28;3.80;;;;;;;22.96;44.81;100813.66;6217488;23;20021;-79
2022/06/06 08:42:11;;;;;;;3.63;3.03;;;;;;;22.96;43.84;100808.31;6217705;23;20056;-80
2022/06/06 08:44:52;;;;;;;3.67;2.30;;;;;;;22.75;43.99;100802.47;6218684;23;20081;-80
2022/06/06 08:47:30;;;;;;;4.93;2.60;;;;;;;22.47;45.32;100810.34;6219853;23;20024;-81
2022/06/06 08:53:50;;;;;;;4.03;2.28;;;;;;;24.16;43.80;100798.41;6218942;23;20059;-81
2022/06/06 08:56:37;;;;;;;2.50;2.30;;;;;;;23.17;43.23;100784.47;6218890;23;20326;-80
2022/06/06 08:59:37;;;;;;;4.35;2.20;;;;;;;22.64;42.96;100791.81;6219662;23;20025;-80
2022/06/06 09:02:44;;;;;;;3.15;2.40;;;;;;;22.04;45.79;100800.75;6221140;23;20035;-80
2022/06/06 09:05:39;;;;;;;3.80;2.70;;;;;;;22.27;45.56;100796.50;6219637;23;20020;-80
2022/06/06 09:08:48;;;;;;;3.90;2.63;;;;;;;21.79;46.13;100792.03;6157406;23;20036;-79
2022/06/06 09:11:55;;;;;;;2.85;2.40;;;;;;;21.12;47.79;100786.72;6219139;23;20024;-82
2022/06/06 09:14:50;;;;;;;4.70;2.60;;;;;;;21.05;47.81;100775.31;6219314;23;20366;-81
2022/06/06 09:17:48;;;;;;;3.38;2.85;;;;;;;21.13;48.86;100771.56;6219952;23;20358;-81
2022/06/06 09:21:05;;;;;;;4.28;2.10;;;;;;;20.82;49.16;100783.94;6219162;23;20103;-80
2022/06/06 09:24:04;;;;;;;4.68;3.05;;;;;;;20.43;48.81;100781.63;6219917;23;20040;-82
2022/06/06 09:26:45;;;;;;;3.42;2.38;;;;;;;20.37;50.33;100788.59;6218203;23;20202;-80
2022/06/06 09:29:49;;;;;;;3.00;2.47;;;;;;;20.63;52.30;100792.91;6217430;23;20361;-79
2022/06/06 09:32:39;;;;;;;4.65;2.53;;;;;;;20.38;51.39;100781.47;6217100;23;20044;-81
2022/06/06 09:35:17;;;;;;;5.13;2.50;;;;;;;20.38;51.45;100781.47;6255369;23;20035;-82
2022/06/06 09:38:02;;;;;;;9.82;2.80;;;;;;;20.64;52.46;100789.22;6255656;23;20024;-81
2022/06/06 09:40:36;;;;;;;3.50;2.40;;;;;;;21.21;50.80;100792.59;6252774;23;20027;-83
2022/06/06 09:43:09;;;;;;;5.93;2.80;;;;;;;21.28;50.61;100800.47;6252005;23;20016;-81
2022/06/06 09:46:09;;;;;;;3.50;2.25;;;;;;;21.44;50.13;100799.88;6249841;23;20103;-81
2022/06/06 09:49:15;;;;;;;3.13;2.55;;;;;;;21.60;49.82;100793.94;6251874;23;20032;-81
2022/06/06 09:52:14;;;;;;;2.72;2.45;;;;;;;21.21;49.84;100800.56;6247275;23;20078;-81
2022/06/06 09:59:04;;;;;;;3.20;2.22;;;;;;;21.19;50.95;100808.75;6248324;23;20074;-82
2022/06/06 10:02:10;;;;;;;4.25;2.83;;;;;;;21.27;50.86;100796.22;6248226;23;20142;-81
2022/06/06 10:05:06;;;;;;;3.65;2.38;;;;;;;21.12;51.25;100792.03;6204937;23;20020;-82
2022/06/06 10:08:14;;;;;;;3.15;2.65;;;;;;;21.07;52.82;100785.75;6252480;23;20042;-82
2022/06/06 10:11:02;;;;;;;6.10;2.92;;;;;;;21.21;52.53;100781.94;6257871;23;20031;-79
2022/06/06 10:13:42;;;;;;;2.97;2.20;;;;;;;20.98;53.38;100795.03;6261711;23;20103;-81
2022/06/06 10:16:33;;;;;;;3.80;2.25;;;;;;;20.81;52.03;100795.59;6254342;23;20039;-82
2022/06/06 10:19:13;;;;;;;3.25;2.65;;;;;;;21.02;52.58;100781.09;6250982;23;20089;-82
2022/06/06 10:22:11;;;;;;;4.32;2.63;;;;;;;21.82;51.31;100797.75;6251718;23;20082;-82
2022/06/06 10:25:25;;;;;;;4.22;2.58;;;;;;;21.91;50.78;100784.91;6251631;23;20020;-82
2022/06/06 10:28:15;;;;;;;4.50;3.22;;;;;;;21.29;52.62;100776.28;6129783;23;20025;-81
2022/06/06 10:30:55;;;;;;;6.22;3.97;;;;;;;21.46;49.24;100766.69;6129356;23;20026;-81
2022/06/06 10:33:48;;;;;;;1.85;1.75;;;;;;;21.75;48.61;100772.22;6209289;23;20027;-82
2022/06/06 10:36:30;;;;;;;3.13;1.90;;;;;;;21.65;48.19;100772.78;6243848;23;20059;-82
2022/06/06 10:39:10;;;;;;;4.60;2.35;;;;;;;22.09;49.36;100773.44;6245866;23;20024;-83
2022/06/06 10:42:04;;;;;;;2.45;2.25;;;;;;;22.88;47.43;100761.44;6254156;23;20528;-84
2022/06/06 10:45:28;;;;;;;5.75;2.22;;;;;;;22.74;46.45;100766.16;6244394;23;20035;-82
2022/06/06 10:48:35;;;;;;;3.72;1.65;;;;;;;22.15;49.32;100773.31;6243335;23;20072;-83
2022/06/06 10:51:43;;;;;;;4.80;2.17;;;;;;;22.00;49.43;100762.25;6250843;23;20096;-82
2022/06/06 10:55:03;;;;;;;4.90;2.08;;;;;;;22.65;48.84;100770.25;6175498;23;20020;-82
2022/06/06 10:58:20;;;;;;;3.10;2.50;;;;;;;22.37;49.39;100762.09;6098499;23;20484;-81
2022/06/06 11:01:18;;;;;;;2.78;2.28;;;;;;;22.19;48.28;100765.69;6099595;23;20026;-83
2022/06/06 11:04:06;;;;;;;2.63;1.90;;;;;;;22.59;47.51;100771.19;6243073;23;20082;-82
2022/06/06 11:07:00;;;;;;;2.83;2.15;;;;;;;22.82;47.39;100773.84;6249313;23;20023;-83
2022/06/06 11:09:59;;;;;;;4.55;2.00;;;;;;;23.29;46.00;100763.09;6249412;23;20407;-81
2022/06/06 11:13:02;;;;;;;2.25;2.05;;;;;;;23.50;45.98;100754.44;6253996;23;20426;-83
2022/06/06 11:15:37;;;;;;;2.47;1.85;;;;;;;22.93;45.78;100744.72;6253417;23;20020;-83
2022/06/06 11:18:31;;;;;;;3.03;1.92;;;;;;;23.43;45.69;100743.09;6252946;23;20024;-82
2022/06/06 11:21:29;;;;;;;2.90;1.90;;;;;;;23.44;46.05;100746.56;6253873;23;20027;-82
2022/06/06 11:24:09;;;;;;;2.20;2.00;;;;;;;23.23;46.63;100745.34;6253736;23;20024;-82
2022/06/06 11:27:05;;;;;;;2.35;2.10;;;;;;;23.48;48.32;100743.19;6258230;23;20020;-82
2022/06/06 11:30:11;;;;;;;3.63;2.13;;;;;;;23.13;46.50;100740.63;6251150;23;20020;-82
2022/06/06 11:33:15;;;;;;;2.55;2.00;;;;;;;22.94;47.30;100733.00;6251804;23;20020;-82
2022/06/06 11:36:05;;;;;;;2.10;1.90;;;;;;;22.77;45.85;100730.22;6222557;23;20024;-83
2022/06/06 11:39:02;;;;;;;3.97;2.50;;;;;;;22.44;47.00;100730.81;6252133;23;20095;-82
2022/06/06 11:41:49;;;;;;;3.00;2.47;;;;;;;22.57;46.83;100729.78;6252141;23;20020;-82
2022/06/06 11:44:30;;;;;;;2.42;2.22;;;;;;;22.97;45.89;100733.34;6252514;23;20048;-82
2022/06/06 11:47:24;;;;;;;4.13;2.55;;;;;;;22.29;45.57;100719.78;6252901;23;20465;-81
2022/06/06 11:50:32;;;;;;;2.65;1.92;;;;;;;22.79;45.81;100718.28;6253756;23;20024;-82
2022/06/06 11:53:24;;;;;;;4.60;2.28;;;;;;;22.73;44.21;100719.19;6134109;23;20024;-82
2022/06/06 11:56:04;;;;;;;1.97;1.80;;;;;;;22.55;44.65;100722.00;6255075;23;20027;-82
2022/06/06 11:59:09;;;;;;;6.03;2.78;;;;;;;22.58;45.09;100715.41;6254361;23;20016;-81
2022/06/06 12:02:14;;;;;;;4.47;2.47;;;;;;;22.52;46.04;100714.47;6252311;23;20106;-83
2022/06/06 12:05:23;;;;;;;4.75;2.05;;;;;;;22.59;44.36;100709.84;6253350;23;20306;-82
2022/06/06 12:08:23;;;;;;;8.30;2.83;;;;;;;22.42;44.92;100704.38;6257477;23;20096;-80
2022/06/06 12:11:06;;;;;;;3.35;2.45;;;;;;;22.55;44.79;100707.88;6257552;23;20024;-83
2022/06/06 12:13:59;;;;;;;5.88;2.67;;;;;;;22.37;44.42;100714.13;6254643;23;20467;-83
2022/06/06 12:16:31;;;;;;;6.38;2.40;;;;;;;22.29;44.63;100717.13;6255082;23;20048;-83
2022/06/06 12:19:20;;;;;;;3.85;2.58;;;;;;;22.43;45.09;100718.53;6253647;23;20020;-82
2022/06/06 12:21:55;;;;;;;3.58;2.28;;;;;;;22.23;44.43;100721.50;6256654;23;20035;-83
2022/06/06 12:24:57;;;;;;;5.55;2.40;;;;;;;22.58;44.62;100721.53;6254438;23;20076;-82
2022/06/06 12:27:46;;;;;;;7.25;2.83;;;;;;;22.56;48.04;100722.81;6233422;23;20031;-83
2022/06/06 12:30:36;;;;;;;5.40;2.83;;;;;;;22.90;46.94;100719.31;6255923;23;20027;-82
2022/06/06 12:33:09;;;;;;;3.40;2.45;;;;;;;22.09;49.26;100725.47;6256917;23;20076;-81
2022/06/06 12:35:45;;;;;;;4.47;2.97;;;;;;;22.29;49.38;100728.59;6253921;23;20080;-83
2022/06/06 12:38:23;;;;;;;4.90;2.85;;;;;;;22.36;48.41;100715.16;6253740;23;20078;-83
2022/06/06 12:41:20;;;;;;;7.00;2.70;;;;;;;22.14;50.06;100722.91;6256298;23;20035;-82
2022/06/06 12:44:01;;;;;;;3.25;2.65;;;;;;;22.33;46.49;100712.94;6237082;23;20028;-82
2022/06/06 12:46:58;;;;;;;3.00;2.70;;;;;;;22.30;44.75;100711.56;6261982;23;20043;-84
2022/06/06 12:49:52;;;;;;;5.20;2.90;;;;;;;22.11;44.79;100710.88;6266140;23;20024;-84
2022/06/06 12:52:51;;;;;;;6.03;2.72;;;;;;;22.43;46.25;100706.00;6199627;23;20024;-83
2022/06/06 12:55:33;;;;;;;6.80;2.35;;;;;;;22.56;44.64;100691.63;6242496;23;20027;-80
2022/06/06 12:58:23;;;;;;;5.85;2.20;;;;;;;22.20;45.35;100713.19;6262723;23;20043;-82
2022/06/06 13:04:00;;;;;;;3.42;2.60;;;;;;;22.21;45.63;100693.50;6268820;23;20183;-84
2022/06/06 13:06:37;;;;;;;3.85;2.47;;;;;;;22.57;45.51;100695.91;6265095;23;20032;-83
2022/06/06 13:09:21;;;;;;;2.92;2.47;;;;;;;22.50;45.41;100681.91;6256484;23;20020;-81
2022/06/06 13:11:58;;;;;;;2.58;2.38;;;;;;;22.41;44.30;100688.63;6257609;23;20035;-82
2022/06/06 13:14:57;;;;;;;5.25;2.85;;;;;;;22.67;44.15;100687.34;6258133;23;20440;-84
2022/06/06 13:17:35;;;;;;;3.13;2.25;;;;;;;22.36;43.30;100664.50;6264504;23;20130;-84
2022/06/06 13:20:23;;;;;;;4.43;2.47;;;;;;;22.63;43.94;100686.19;6256426;23;20024;-82
2022/06/06 13:23:28;;;;;;;4.80;2.45;;;;;;;22.86;41.26;100674.66;6255535;23;20023;-83
2022/06/06 13:26:08;;;;;;;2.45;2.20;;;;;;;22.87;41.11;100676.28;6160773;23;20386;-83
2022/06/06 13:28:46;;;;;;;2.67;2.45;;;;;;;22.46;41.81;100670.88;6241690;23;20055;-83
2022/06/06 13:31:33;;;;;;;2.65;2.15;;;;;;;22.92;43.33;100679.06;6256629;23;20024;-83
2022/06/06 13:34:20;;;;;;;3.58;2.30;;;;;;;23.31;41.55;100678.22;6257473;23;20020;-83
2022/06/06 13:37:01;;;;;;;2.83;2.08;;;;;;;22.88;41.20;100688.59;6254933;23;20071;-82
2022/06/06 13:39:42;;;;;;;3.97;2.30;;;;;;;23.06;42.92;100681.25;6254188;23;20048;-83
2022/06/06 13:42:18;;;;;;;2.90;2.30;;;;;;;22.71;42.56;100667.94;6256315;23;20057;-83
2022/06/06 13:45:11;;;;;;;6.07;2.15;;;;;;;22.99;41.88;100671.75;6261461;23;20031;-82
2022/06/06 13:47:47;;;;;;;;;;;;;;;22.60;41.35;100671.44;6261860;23;20020;-83
2022/06/06 13:50:22;;;;;;;2.30;2.08;;;;;;;22.98;40.16;100673.59;6262451;23;19939;-82
2022/06/06 13:53:13;;;;;;;6.13;2.25;;;;;;;22.88;39.53;100668.06;6261945;23;20072;-84
2022/06/06 13:55:41;;;;;;;5.32;2.15;;;;;;;23.07;40.00;100668.72;6261148;23;20096;-83
2022/06/06 13:58:34;;;;;;;4.85;2.22;;;;;;;23.22;39.83;100660.16;6259639;23;20024;-83
2022/06/06 14:01:08;;;;;;;;;;;;;;;23.34;41.67;100679.63;6260407;23;20024;-82
2022/06/06 14:04:07;;;;;;;3.90;1.70;;;;;;;23.26;39.36;100685.34;6260435;23;20375;-81
2022/06/06 14:07:03;;;;;;;4.15;2.42;;;;;;;23.22;39.82;100681.50;6260109;23;20047;-81
2022/06/06 14:09:39;;;;;;;4.28;2.55;;;;;;;23.49;39.54;100675.38;6259163;23;20024;-82
2022/06/06 14:12:18;;;;;;;2.88;2.17;;;;;;;23.70;40.17;100686.44;6258502;23;20023;-82
2022/06/06 14:14:45;;;;;;;4.38;2.28;;;;;;;23.50;40.66;100694.88;6255200;23;20024;-82
2022/06/06 14:17:13;;;;;;;4.15;2.20;;;;;;;22.55;40.21;100690.00;6256831;23;20031;-82
2022/06/06 14:19:58;;;;;;;3.03;2.22;;;;;;;22.78;41.21;100694.47;6257092;23;20106;-83
2022/06/06 14:22:31;;;;;;;3.50;2.20;;;;;;;23.03;41.49;100687.06;6256943;23;20024;-82
2022/06/06 14:25:01;;;;;;;5.07;2.30;;;;;;;23.29;41.35;100704.34;6256713;23;20445;-83
2022/06/06 14:27:29;;;;;;;5.03;2.25;;;;;;;23.27;40.53;100695.78;6255985;23;20027;-83
2022/06/06 14:29:58;;;;;;;3.80;2.47;;;;;;;23.16;41.65;100686.75;6254577;23;20530;-83
2022/06/06 14:32:28;;;;;;;3.63;2.38;;;;;;;23.10;39.98;100681.56;6254115;23;20036;-81
2022/06/06 14:34:57;;;;;;;2.63;2.10;;;;;;;23.19;40.39;100688.13;6252725;23;20026;-83
2022/06/06 14:37:27;;;;;;;3.97;1.92;;;;;;;22.85;40.77;100687.19;6254190;23;20020;-84
2022/06/06 14:39:57;;;;;;;2.75;1.95;;;;;;;23.16;40.00;100681.41;6253172;23;20016;-82
2022/06/06 14:42:28;;;;;;;5.65;2.22;;;;;;;23.37;39.93;100687.97;6252788;23;20036;-83
2022/06/06 14:44:59;;;;;;;3.10;1.88;;;;;;;23.33;39.45;100681.47;6252917;23;20063;-83
2022/06/06 14:47:27;;;;;;;4.72;2.35;;;;;;;23.44;40.80;100685.97;6252725;23;20020;-83
2022/06/06 14:52:53;;;;;;;3.85;2.50;;;;;;;22.68;41.48;100684.44;6255895;23;20047;-84
2022/06/06 14:55:23;;;;;;;4.00;2.38;;;;;;;22.51;41.91;100687.00;6256445;23;20024;-83
2022/06/06 14:57:51;;;;;;;4.90;2.20;;;;;;;22.25;41.90;100679.44;6257782;23;20559;-81
2022/06/06 15:00:34;;;;;;;5.07;2.22;;;;;;;22.59;42.77;100683.16;6256821;23;20023;-83
2022/06/06 15:03:03;;;;;;;7.25;2.60;;;;;;;22.42;42.15;100682.25;6264736;23;20404;-82
2022/06/06 15:05:37;;;;;;;3.95;2.47;;;;;;;22.31;42.56;100691.03;6259875;23;20090;-82
2022/06/06 15:08:10;;;;;;;5.40;2.30;;;;;;;22.48;42.16;100683.97;6256273;23;20020;-82
2022/06/06 15:10:45;;;;;;;4.85;1.75;;;;;;;22.61;42.57;100680.25;6256428;23;20054;-83
2022/06/06 15:13:13;;;;;;;2.42;1.83;;;;;;;22.62;41.93;100674.69;6255473;23;20016;-82
2022/06/06 15:15:42;;;;;;;4.85;2.10;;;;;;;22.68;41.18;100672.97;6257529;23;20485;-82
2022/06/06 15:18:21;;;;;;;3.65;2.45;;;;;;;22.53;42.33;100673.44;6257298;23;20020;-82
2022/06/06 15:20:52;;;;;;;5.15;2.63;;;;;;;22.73;42.12;100671.19;6256097;23;20024;-81
2022/06/06 15:23:24;;;;;;;3.33;2.30;;;;;;;22.89;41.27;100674.19;6261412;23;20020;-80
2022/06/06 15:25:59;;;;;;;4.68;2.58;;;;;;;22.44;41.90;100667.63;6264613;23;20023;-80
2022/06/06 15:28:37;;;;;;;2.85;2.08;;;;;;;22.57;43.43;100673.78;6251304;23;20098;-80
2022/06/06 15:31:13;;;;;;;2.85;1.73;;;;;;;22.55;43.15;100673.19;6253861;23;20027;-83
2022/06/06 15:38:56;;;;;;;3.17;1.73;;;;;;;22.50;43.58;100687.22;6223246;23;20012;-77
2022/06/06 15:41:32;;;;;;;2.60;1.83;;;;;;;22.40;43.11;100671.00;6221628;23;20031;-78
2022/06/06 15:44:06;;;;;;;2.45;2.10;;;;;;;22.38;43.13;100687.22;6247842;23;20055;-78
2022/06/06 15:46:54;;;;;;;2.67;2.25;;;;;;;22.74;42.18;100682.66;6252925;23;20095;-79
2022/06/06 15:49:35;;;;;;;4.72;1.92;;;;;;;22.68;42.44;100684.44;6251042;23;20166;-79
2022/06/06 15:52:15;;;;;;;4.82;2.13;;;;;;;23.18;42.03;100678.50;6250155;23;20024;-80
2022/06/06 15:54:48;;;;;;;4.90;2.13;;;;;;;22.90;41.65;100686.50;6256021;23;20055;-80
2022/06/06 15:57:28;;;;;;;3.10;2.55;;;;;;;22.93;41.87;100670.03;6256503;23;20020;-80
2022/06/06 16:00:21;;;;;;;2.83;2.47;;;;;;;22.96;41.69;100682.88;6256886;23;20020;-80
2022/06/06 16:03:08;;;;;;;5.80;2.75;;;;;;;23.17;41.86;100684.91;6257227;23;20032;-79
2022/06/06 16:05:40;;;;;;;5.28;2.30;;;;;;;22.96;41.94;100667.69;6229510;23;20024;-80